Station: Gunnedah Airport  

  Atmospheric Gas Attenuation - ITU Rec 676-11   ----------------- dB/100km -----------------
Date Time Temp RH % AH g/m3 Dew Point Wind Direction Speed kph Gust kph Barometer mB Rainfall Since 9am 24GHz 47GHz 76GHz 122GHz 134GHz 241GHz
08/05 12:30 17.5 39 5.81 3.4 20 28 1021.7 0 13.5 21.0 28.2 73.4 61.0 207.8
08/05 12:20 16.7 40 5.68 3 13 19 1021.8 0 13.3 21.0 28.0 72.9 60.2 204.7
08/05 12:10 16.7 41 5.83 3.4 20 28 1022 0 13.6 21.3 28.6 74.3 61.9 210.7
08/05 12:00 16.2 40 5.52 2.6 15 24 1022.3 0 13.0 21.0 27.7 71.9 58.7 199.6
08/05 11:50 15.7 42 5.62 2.8 13 19 1022.4 0 13.2 21.2 28.2 73.3 60.3 204.9
08/05 11:40 15 43 5.51 2.5 7 9 1022.6 0 13.0 21.2 28.1 72.9 59.5 202.2
08/05 11:30 15.2 43 5.58 2.7 9 13 1022.8 0 13.1 21.3 28.2 73.4 60.2 204.5
08/05 11:20 15.1 46 5.93 3.6 9 11 1022.8 0 13.9 21.8 29.5 76.8 64.4 219.2
08/05 11:10 14.8 45 5.7 3 7 9 1023 0 13.4 21.6 28.8 74.9 61.9 210.5
08/05 11:00 14.6 45 5.63 2.8 9 17 1023.2 0 13.2 21.5 28.6 74.5 61.2 208.2
08/05 10:50 13.7 46 5.45 2.3 7 9 1023.4 0 12.9 21.5 28.3 73.6 59.8 203.1
08/05 10:40 13.9 46 5.51 2.5 13 15 1023.6 0 13.0 21.5 28.5 74.0 60.4 205.1
08/05 10:30 13.2 48 5.51 2.4 11 17 1023.9 0 13.0 21.7 28.7 74.7 60.9 206.9
08/05 10:20 13.4 49 5.7 2.9 11 11 1023.8 0 13.4 21.9 29.3 76.3 63.0 214.3
08/05 10:10 13 48 5.44 2.3 11 13 1023.9 0 12.9 21.6 28.5 74.2 60.3 204.5
08/05 10:00 12.5 51 5.61 2.7 9 13 1024 0 13.3 22.0 29.3 76.3 62.7 212.9
08/05 09:50 12.6 54 5.97 3.5 9 11 1023.9 0 14.0 22.5 30.6 79.7 67.0 228.0
08/05 09:40 11.5 54 5.58 2.5 9 13 1023.9 0 13.2 22.2 29.6 77.0 63.1 214.3
08/05 09:30 11 56 5.61 2.6 11 17 1024.1 0 13.3 22.4 29.9 77.8 63.9 217.0
08/05 09:20 10.5 58 5.63 2.6 13 17 1024 0 13.4 22.5 30.1 78.4 64.5 219.2
08/05 09:10 10.3 58 5.56 2.4 13 15 1024 0 13.2 22.5 30.0 77.9 63.8 216.7
08/05 09:00 9.8 59 5.48 2.2 13 17 1024 0 13.1 22.5 29.8 77.6 63.2 214.5
08/05 08:50 9.3 60 5.39 1.9 13 15 1024 0 12.9 22.4 29.7 77.2 62.5 211.9
08/05 08:40 9.1 60 5.33 1.8 17 19 1024 0 12.8 22.4 29.5 76.8 61.9 209.8
08/05 08:30 8.8 62 5.4 1.9 13 17 1024.2 0 13.0 22.6 29.9 77.8 63.0 213.7
08/05 08:20 8.6 62 5.33 1.7 13 15 1024.1 0 12.8 22.5 29.7 77.3 62.3 211.1
08/05 08:10 8.4 65 5.52 2.2 7 13 1024.1 0 13.2 22.9 30.5 79.4 64.9 220.1
08/05 08:00 7.9 66 5.42 2 9 13 1024.1 0 13.0 22.8 30.3 78.9 64.0 217.0
08/05 07:50 7.4 66 5.25 1.5 11 13 1023.9 0 12.7 22.7 29.8 77.6 62.2 210.7
08/05 07:40 7.3 66 5.22 1.4 11 15 1023.9 0 12.6 22.7 29.8 77.4 61.9 209.6
08/05 07:30 6.6 68 5.14 1.1 13 20 1023.9 0 12.5 22.7 29.7 77.3 61.5 207.9
08/05 07:20 5.8 71 5.09 1 9 11 1023.8 0 12.4 22.8 29.8 77.5 61.4 207.7
08/05 07:10 5.1 72 4.93 0.5 9 11 1023.7 0 12.1 22.8 29.4 76.5 59.9 202.2
08/05 07:00 4.9 70 4.73 -0.1 11 17 1023.8 0 11.7 22.5 28.7 74.6 57.5 193.7
08/05 06:50 4.3 74 4.8 0.1 15 19 1023.5 0 11.8 22.8 29.2 75.9 58.8 198.3
08/05 06:40 4.2 72 4.64 -0.4 9 11 1023.6 0 11.5 22.5 28.6 74.3 56.8 191.3
08/05 06:30 4.5 71 4.67 -0.3 13 17 1023.6 0 11.5 22.5 28.6 74.4 57.0 191.9
08/05 06:20 4.3 72 4.67 -0.3 13 17 1023.4 0 11.6 22.5 28.7 74.5 57.1 192.4
08/05 06:10 4.5 71 4.67 -0.3 17 19 1023.1 0 11.5 22.5 28.6 74.3 57.0 191.8
08/05 06:00 4 73 4.65 -0.4 15 19 1023.2 0 11.5 22.6 28.7 74.6 57.1 192.2
08/05 05:50 4.3 72 4.67 -0.3 13 15 1023.1 0 11.6 22.5 28.7 74.5 57.1 192.3
08/05 05:40 5.1 70 4.79 0.1 15 17 1022.9 0 11.8 22.5 28.9 75.0 58.1 195.8
08/05 05:30 4.8 72 4.83 0.2 19 22 1023 0 11.9 22.7 29.1 75.7 58.8 198.3
08/05 05:20 4 73 4.65 -0.4 17 19 1022.9 0 11.5 22.6 28.7 74.6 57.1 192.1
08/05 05:10 4.7 70 4.67 -0.3 15 17 1023 0 11.5 22.4 28.5 74.1 56.8 191.3
08/05 05:00 4.9 69 4.66 -0.3 11 15 1023.2 0 11.5 22.4 28.4 73.8 56.6 190.4
08/05 04:50 5.4 67 4.68 -0.2 9 13 1023.1 0 11.5 22.3 28.3 73.6 56.5 190.1
08/05 04:40 5.7 65 4.63 -0.4 15 17 1023.1 0 11.4 22.1 28.0 72.8 55.6 187.2
08/05 04:30 5.9 64 4.62 -0.4 11 17 1023.1 0 11.4 22.1 27.9 72.5 55.3 186.3
08/05 04:20 5.9 64 4.62 -0.4 11 15 1023 0 11.4 22.1 27.9 72.5 55.3 186.3
08/05 04:10 6.2 63 4.64 -0.3 11 13 1022.9 0 11.4 22.0 27.9 72.4 55.4 186.4
08/05 04:00 6.1 63 4.61 -0.4 9 13 1022.9 0 11.4 22.0 27.8 72.2 55.1 185.3
08/05 03:50 5.8 65 4.66 -0.3 9 13 1022.9 0 11.5 22.1 28.1 73.0 55.9 188.3
08/05 03:40 5.3 69 4.79 0.1 11 13 1022.8 0 11.8 22.5 28.8 74.8 57.9 195.3
08/05 03:30 3.6 73 4.52 -0.8 2 7 1023 0 11.3 22.5 28.3 73.6 55.7 187.2
08/05 03:20 4.4 71 4.64 -0.4 6 6 1022.9 0 11.5 22.5 28.5 74.1 56.7 190.7
08/05 03:10 3.9 72 4.55 -0.7 7 9 1022.9 0 11.3 22.4 28.4 73.6 55.9 187.8
08/05 03:00 3.7 72 4.49 -0.9 13 15 1023 0 11.2 22.4 28.2 73.2 55.2 185.6
08/05 02:50 3.7 71 4.43 -1.1 11 11 1023.1 0 11.1 22.3 28.0 72.6 54.5 182.9
08/05 02:40 4.9 66 4.46 -0.9 13 15 1023.1 0 11.1 22.1 27.7 71.8 54.0 181.5
08/05 02:30 5.4 64 4.47 -0.8 13 17 1023.2 0 11.1 22.0 27.5 71.4 53.8 180.8
08/05 02:20 5.4 64 4.47 -0.8 11 11 1023.2 0 11.1 22.0 27.5 71.4 53.8 180.8
08/05 02:10 5.5 63 4.43 -1 15 19 1023.2 0 11.0 21.9 27.3 70.9 53.2 178.8
08/05 02:00 5.4 64 4.47 -0.8 11 15 1023.5 0 11.1 22.0 27.5 71.5 53.8 180.8
08/05 01:50 5.8 63 4.52 -0.7 13 15 1023.1 0 11.2 21.9 27.6 71.6 54.2 182.1
08/05 01:40 5.5 64 4.5 -0.8 19 20 1023.1 0 11.1 22.0 27.6 71.6 54.1 181.9
08/05 01:30 5.5 63 4.43 -1 17 22 1023.1 0 11.0 21.9 27.3 70.9 53.2 178.8
08/05 01:20 5.5 64 4.5 -0.8 13 17 1023 0 11.1 22.0 27.6 71.6 54.1 181.9
08/05 01:10 5.9 63 4.55 -0.6 17 19 1022.8 0 11.2 21.9 27.7 71.8 54.4 183.1
08/05 01:00 5.3 64 4.44 -0.9 13 20 1022.9 0 11.0 21.9 27.4 71.2 53.5 179.6
08/05 00:50 6.2 60 4.41 -1 17 19 1022.8 0 10.9 21.7 27.0 70.1 52.5 176.3
08/05 00:40 5.8 61 4.37 -1.1 11 13 1022.9 0 10.9 21.7 27.0 70.0 52.3 175.5
08/05 00:20 5.9 61 4.4 -1 7 9 1022.9 0 10.9 21.7 27.1 70.3 52.6 176.6
08/05 00:10 6.2 59 4.34 -1.2 15 15 1022.8 0 10.8 21.6 26.8 69.4 51.6 173.3
08/05 00:00 6.4 60 4.47 -0.8 17 20 1022.8 0 11.1 21.7 27.2 70.5 53.1 178.5
07/05 23:50 6.3 59 4.37 -1.1 17 17 1022.8 0 10.8 21.6 26.8 69.6 51.9 174.4
07/05 23:40 6 58 4.21 -1.6 11 13 1022.8 0 10.5 21.4 26.3 68.2 50.1 168.0
07/05 23:30 6.4 57 4.25 -1.5 13 17 1022.9 0 10.6 21.4 26.4 68.3 50.4 168.9
07/05 23:20 7 54 4.19 -1.7 15 15 1022.9 0 10.4 21.1 26.0 67.2 49.3 165.1
07/05 23:10 8.6 50 4.3 -1.2 20 24 1022.8 0 10.6 20.9 25.8 66.9 49.6 166.5
07/05 23:00 8.4 50 4.24 -1.4 17 20 1023.1 0 10.5 20.9 25.7 66.5 49.0 164.4
07/05 22:50 7.2 54 4.24 -1.5 17 19 1023 0 10.5 21.2 26.1 67.5 49.8 166.9
07/05 22:40 7.6 51 4.11 -1.9 15 17 1022.9 0 10.3 20.9 25.5 65.9 47.9 160.5
07/05 22:30 7.9 51 4.19 -1.6 20 24 1023 0 10.4 20.9 25.7 66.5 48.7 163.3
07/05 22:20 8.5 48 4.1 -1.9 19 22 1023.1 0 10.2 20.7 25.2 65.1 47.3 158.3
07/05 22:10 9.2 45 4.02 -2.1 19 20 1023.1 0 10.0 20.4 24.7 63.8 45.9 153.7
07/05 22:00 9.1 45 3.99 -2.2 19 24 1023.2 0 10.0 20.4 24.6 63.6 45.7 152.6
07/05 21:50 9.3 45 4.05 -2 17 22 1023.4 0 10.1 20.4 24.8 64.0 46.2 154.8
07/05 21:40 9.2 45 4.02 -2.1 13 17 1023.1 0 10.0 20.4 24.7 63.8 45.9 153.7
07/05 21:30 9.4 44 3.98 -2.2 20 30 1023.4 0 9.9 20.3 24.5 63.3 45.4 151.7
07/05 21:20 9.3 45 4.05 -2 22 24 1023.1 0 10.1 20.4 24.7 64.0 46.2 154.7
07/05 21:10 8.8 45 3.92 -2.5 19 20 1023 0 9.8 20.3 24.4 63.1 45.0 150.3
07/05 21:00 8.9 43 3.77 -3 9 13 1023.2 0 9.5 20.1 23.9 61.7 43.2 143.9
07/05 20:50 9.1 42 3.73 -3.1 7 9 1023 0 9.4 20.0 23.7 61.1 42.6 141.9
07/05 20:40 9.5 41 3.73 -3.1 7 9 1022.9 0 9.4 19.9 23.6 60.8 42.4 141.2
07/05 20:30 10 40 3.76 -3 17 26 1022.9 0 9.4 19.9 23.5 60.7 42.5 141.6
07/05 20:20 9.8 41 3.8 -2.8 17 19 1022.7 0 9.5 20.0 23.7 61.2 43.0 143.5
07/05 20:10 9.7 41 3.78 -2.9 22 24 1022.6 0 9.5 19.9 23.7 61.1 42.8 142.9
07/05 20:00 10 40 3.76 -3 20 26 1022.7 0 9.4 19.9 23.5 60.7 42.5 141.5
07/05 19:50 10.2 39 3.71 -3.1 17 20 1022.7 0 9.3 19.7 23.3 60.1 41.8 139.2

Last Refresh: 08-May-2026 12:08:51

Bureau of Meteorology